Caribe Navigator — V2PW6 — position and weather

sailwx.info

Track history (hours):
 
Tides and Currents Weather Stations Pressure Air Temp Water Temp Dewpoint Dewpoint Depression Visibility Wind Speed Wind Dir Waves Ship Positions

Caribe Navigator

Last reported at 2018-Feb-16 01:49 UTC. Time now 2018-Feb-21 03:30 UTC.
Position N 25°17' W 080°04'.

Length 100 m; draft 5.4 m.

Type: Cargo ship. MMSI: 305289000.

Date/timePositionNaut miles runAvg speedWind from/ knotsBaromVisibWave heightAir tempDewpointWater temp
2018-Feb-16 01:49N 25°17' W 080°04'411.4
2018-Feb-16 01:30N 25°20' W 080°02'610.9
2018-Feb-16 00:59N 25°26' W 080°01'511.6
2018-Feb-16 00:30N 25°31' W 080°02'611.1
2018-Feb-16 00:00N 25°37' W 080°02'510.8
2018-Feb-15 23:30N 25°42' W 080°02'510.6
2018-Feb-15 23:00N 25°47' W 080°03'510.9
2018-Feb-15 22:30N 25°53' W 080°03'611.6
2018-Feb-15 22:00N 25°58' W 080°04'612.0
2018-Feb-15 21:30N 26°04' W 080°05'2 4.4
2018-Feb-15 20:58N 26°05' W 080°07'0 0.0
2018-Feb-15 20:28N 26°05' W 080°07'0 0.0
2018-Feb-15 19:58N 26°05' W 080°07'0 0.0
2018-Feb-15 19:28N 26°05' W 080°07'0 0.0
2018-Feb-15 18:58N 26°05' W 080°07'0 0.0
2018-Feb-15 18:28N 26°05' W 080°07'0 0.0
2018-Feb-15 17:58N 26°05' W 080°07'0 0.0
2018-Feb-15 17:28N 26°05' W 080°07'0 0.0
2018-Feb-15 16:58N 26°05' W 080°07'0 0.0
2018-Feb-15 16:28N 26°05' W 080°07'0 0.0
2018-Feb-15 15:58N 26°05' W 080°07'0 0.0
2018-Feb-15 15:28N 26°05' W 080°07'0 0.0
2018-Feb-15 14:58N 26°05' W 080°07'0 0.0
2018-Feb-15 14:28N 26°05' W 080°07'0 0.0
2018-Feb-15 13:58N 26°05' W 080°07'0 0.0
2018-Feb-15 13:28N 26°05' W 080°07'0 0.0
2018-Feb-15 12:58N 26°05' W 080°07'0 0.0
2018-Feb-15 12:26N 26°05' W 080°07'3 6.1
2018-Feb-15 12:01N 26°06' W 080°04'1 1.9
2018-Feb-15 11:31N 26°07' W 080°04'1 1.2
2018-Feb-15 10:56N 26°07' W 080°05'0 0.0
2018-Feb-15 10:29N 26°07' W 080°05'0 0.0
2018-Feb-15 09:59N 26°07' W 080°05'0 0.0
2018-Feb-15 09:29N 26°07' W 080°05'0 0.1
2018-Feb-15 08:59N 26°07' W 080°05'0 0.0
2018-Feb-15 08:29N 26°07' W 080°05'0 0.0
2018-Feb-15 07:59N 26°07' W 080°05'0 0.0
2018-Feb-15 07:29N 26°07' W 080°05'0 0.0
2018-Feb-15 06:59N 26°07' W 080°04'0 0.0
2018-Feb-15 06:23N 26°07' W 080°05'0 0.0
2018-Feb-15 05:59N 26°07' W 080°05'0 0.0
2018-Feb-15 05:29N 26°07' W 080°04'0 0.1
2018-Feb-15 04:56N 26°07' W 080°05'0 0.1
2018-Feb-15 04:29N 26°07' W 080°05'0 0.0
2018-Feb-15 03:59N 26°07' W 080°05'0 0.1
2018-Feb-15 03:29N 26°07' W 080°05'0 0.1
2018-Feb-15 02:59N 26°07' W 080°05'0 0.0
2018-Feb-15 02:29N 26°07' W 080°05'0 0.0
2018-Feb-15 01:59N 26°07' W 080°05'0 0.0
2018-Feb-15 01:29N 26°07' W 080°05'0 0.0
2018-Feb-15 00:59N 26°07' W 080°05'0 0.0
2018-Feb-15 00:29N 26°07' W 080°05'0 0.0
2018-Feb-14 23:59N 26°07' W 080°05'0 0.1
2018-Feb-14 23:29N 26°07' W 080°05'0 0.0
2018-Feb-14 22:59N 26°07' W 080°05'2 3.3
2018-Feb-14 22:31N 26°06' W 080°04'1 2.5
2018-Feb-14 22:00N 26°05' W 080°03'3 6.9
2018-Feb-14 21:30N 26°01' W 080°02'2 4.6
2018-Feb-14 21:01N 25°59' W 080°02'2 4.9
2018-Feb-14 20:31N 26°02' W 080°02'2 4.7
2018-Feb-14 20:00N 26°04' W 080°02'2 4.8
2018-Feb-14 19:31N 26°06' W 080°02'610.9
2018-Feb-14 19:00N 26°01' W 080°02'611.9
2018-Feb-14 18:30N 25°55' W 080°02'510.8
2018-Feb-14 18:01N 25°50' W 080°03'4 8.9
2018-Feb-14 17:30N 25°46' W 080°06'4 7.8
2018-Feb-14 17:00N 25°46' W 080°10'0 0.1
2018-Feb-14 16:26N 25°46' W 080°10'0 0.0
2018-Feb-14 15:59N 25°46' W 080°10'0 0.0
2018-Feb-14 15:26N 25°46' W 080°10'0 0.0
2018-Feb-14 14:59N 25°46' W 080°10'0 0.0
2018-Feb-14 14:29N 25°46' W 080°10'0 0.0
2018-Feb-14 13:59N 25°46' W 080°10'0 0.0
2018-Feb-14 13:29N 25°46' W 080°10'0 0.0
2018-Feb-14 12:59N 25°46' W 080°10'0 0.0
2018-Feb-14 12:26N 25°46' W 080°10'0 0.0
2018-Feb-14 11:51N 25°46' W 080°10'0 0.7
2018-Feb-14 11:30N 25°46' W 080°10'4 8.5
2018-Feb-14 11:00N 25°46' W 080°05'4 8.2
2018-Feb-14 10:30N 25°42' W 080°03'510.4
2018-Feb-14 09:59N 25°37' W 080°02'510.4
2018-Feb-14 09:29N 25°32' W 080°02'711.2
2018-Feb-14 08:51N 25°25' W 080°02'  
2018-Feb-08 23:30N 25°34' W 080°01'611.4
2018-Feb-08 23:00N 25°40' W 080°01'612.3
2018-Feb-08 22:30N 25°46' W 080°02'1312.8
2018-Feb-08 21:30N 25°59' W 080°04'7 7.5
2018-Feb-08 20:30N 26°05' W 080°07'0 0.0
2018-Feb-08 05:00N 26°05' W 080°07'0 0.0
2018-Feb-08 04:00N 26°05' W 080°07'0 0.0
2018-Feb-08 03:00N 26°05' W 080°07'0 0.0
2018-Feb-08 02:30N 26°05' W 080°07'0 0.0
2018-Feb-08 01:30N 26°05' W 080°07'0 0.0
2018-Feb-08 01:00N 26°05' W 080°07'0 0.0
2018-Feb-08 00:30N 26°05' W 080°07'0 0.0
2018-Feb-08 00:00N 26°05' W 080°07'0 0.0
2018-Feb-07 23:30N 26°05' W 080°07'0 0.0
2018-Feb-07 23:00N 26°05' W 080°07'0 0.0
2018-Feb-07 22:30N 26°05' W 080°07'0 0.0
2018-Feb-07 22:00N 26°05' W 080°07'0 0.0
2018-Feb-07 21:30N 26°05' W 080°07'18 1.5
2018-Feb-07 09:30N 25°48' W 080°02'5 9.9
2018-Feb-07 09:00N 25°43' W 080°01'611.2
2018-Feb-07 08:30N 25°37' W 080°00'611.5
2018-Feb-07 07:58N 25°31' W 080°00'  
Track history (hours):
 
Tides and Currents Weather Stations Pressure Air Temp Water Temp Dewpoint Dewpoint Depression Visibility Wind Speed Wind Dir Waves Ship Positions

Caribe Navigator

Last reported at 2018-Feb-16 01:49 UTC. Time now 2018-Feb-21 03:30 UTC.
Position N 25°17' W 080°04'.

Length 100 m; draft 5.4 m.

Type: Cargo ship. MMSI: 305289000.

Date/timePositionNaut miles runAvg speedWind from/ knotsBaromVisibWave heightAir tempDewpointWater temp
2018-Feb-16 01:49N 25°17' W 080°04'411.4
2018-Feb-16 01:30N 25°20' W 080°02'610.9
2018-Feb-16 00:59N 25°26' W 080°01'511.6
2018-Feb-16 00:30N 25°31' W 080°02'611.1
2018-Feb-16 00:00N 25°37' W 080°02'510.8
2018-Feb-15 23:30N 25°42' W 080°02'510.6
2018-Feb-15 23:00N 25°47' W 080°03'510.9
2018-Feb-15 22:30N 25°53' W 080°03'611.6
2018-Feb-15 22:00N 25°58' W 080°04'612.0
2018-Feb-15 21:30N 26°04' W 080°05'2 4.4
2018-Feb-15 20:58N 26°05' W 080°07'0 0.0
2018-Feb-15 20:28N 26°05' W 080°07'0 0.0
2018-Feb-15 19:58N 26°05' W 080°07'0 0.0
2018-Feb-15 19:28N 26°05' W 080°07'0 0.0
2018-Feb-15 18:58N 26°05' W 080°07'0 0.0
2018-Feb-15 18:28N 26°05' W 080°07'0 0.0
2018-Feb-15 17:58N 26°05' W 080°07'0 0.0
2018-Feb-15 17:28N 26°05' W 080°07'0 0.0
2018-Feb-15 16:58N 26°05' W 080°07'0 0.0
2018-Feb-15 16:28N 26°05' W 080°07'0 0.0
2018-Feb-15 15:58N 26°05' W 080°07'0 0.0
2018-Feb-15 15:28N 26°05' W 080°07'0 0.0
2018-Feb-15 14:58N 26°05' W 080°07'0 0.0
2018-Feb-15 14:28N 26°05' W 080°07'0 0.0
2018-Feb-15 13:58N 26°05' W 080°07'0 0.0
2018-Feb-15 13:28N 26°05' W 080°07'0 0.0
2018-Feb-15 12:58N 26°05' W 080°07'0 0.0
2018-Feb-15 12:26N 26°05' W 080°07'3 6.1
2018-Feb-15 12:01N 26°06' W 080°04'1 1.9
2018-Feb-15 11:31N 26°07' W 080°04'1 1.2
2018-Feb-15 10:56N 26°07' W 080°05'0 0.0
2018-Feb-15 10:29N 26°07' W 080°05'0 0.0
2018-Feb-15 09:59N 26°07' W 080°05'0 0.0
2018-Feb-15 09:29N 26°07' W 080°05'0 0.1
2018-Feb-15 08:59N 26°07' W 080°05'0 0.0
2018-Feb-15 08:29N 26°07' W 080°05'0 0.0
2018-Feb-15 07:59N 26°07' W 080°05'0 0.0
2018-Feb-15 07:29N 26°07' W 080°05'0 0.0
2018-Feb-15 06:59N 26°07' W 080°04'0 0.0
2018-Feb-15 06:23N 26°07' W 080°05'0 0.0
2018-Feb-15 05:59N 26°07' W 080°05'0 0.0
2018-Feb-15 05:29N 26°07' W 080°04'0 0.1
2018-Feb-15 04:56N 26°07' W 080°05'0 0.1
2018-Feb-15 04:29N 26°07' W 080°05'0 0.0
2018-Feb-15 03:59N 26°07' W 080°05'0 0.1
2018-Feb-15 03:29N 26°07' W 080°05'0 0.1
2018-Feb-15 02:59N 26°07' W 080°05'0 0.0
2018-Feb-15 02:29N 26°07' W 080°05'0 0.0
2018-Feb-15 01:59N 26°07' W 080°05'0 0.0
2018-Feb-15 01:29N 26°07' W 080°05'0 0.0
2018-Feb-15 00:59N 26°07' W 080°05'0 0.0
2018-Feb-15 00:29N 26°07' W 080°05'0 0.0
2018-Feb-14 23:59N 26°07' W 080°05'0 0.1
2018-Feb-14 23:29N 26°07' W 080°05'0 0.0
2018-Feb-14 22:59N 26°07' W 080°05'2 3.3
2018-Feb-14 22:31N 26°06' W 080°04'1 2.5
2018-Feb-14 22:00N 26°05' W 080°03'3 6.9
2018-Feb-14 21:30N 26°01' W 080°02'2 4.6
2018-Feb-14 21:01N 25°59' W 080°02'2 4.9
2018-Feb-14 20:31N 26°02' W 080°02'2 4.7
2018-Feb-14 20:00N 26°04' W 080°02'2 4.8
2018-Feb-14 19:31N 26°06' W 080°02'610.9
2018-Feb-14 19:00N 26°01' W 080°02'611.9
2018-Feb-14 18:30N 25°55' W 080°02'510.8
2018-Feb-14 18:01N 25°50' W 080°03'4 8.9
2018-Feb-14 17:30N 25°46' W 080°06'4 7.8
2018-Feb-14 17:00N 25°46' W 080°10'0 0.1
2018-Feb-14 16:26N 25°46' W 080°10'0 0.0
2018-Feb-14 15:59N 25°46' W 080°10'0 0.0
2018-Feb-14 15:26N 25°46' W 080°10'0 0.0
2018-Feb-14 14:59N 25°46' W 080°10'0 0.0
2018-Feb-14 14:29N 25°46' W 080°10'0 0.0
2018-Feb-14 13:59N 25°46' W 080°10'0 0.0
2018-Feb-14 13:29N 25°46' W 080°10'0 0.0
2018-Feb-14 12:59N 25°46' W 080°10'0 0.0
2018-Feb-14 12:26N 25°46' W 080°10'0 0.0
2018-Feb-14 11:51N 25°46' W 080°10'0 0.7
2018-Feb-14 11:30N 25°46' W 080°10'4 8.5
2018-Feb-14 11:00N 25°46' W 080°05'4 8.2
2018-Feb-14 10:30N 25°42' W 080°03'510.4
2018-Feb-14 09:59N 25°37' W 080°02'510.4
2018-Feb-14 09:29N 25°32' W 080°02'711.2
2018-Feb-14 08:51N 25°25' W 080°02'  
2018-Feb-08 23:30N 25°34' W 080°01'611.4
2018-Feb-08 23:00N 25°40' W 080°01'612.3
2018-Feb-08 22:30N 25°46' W 080°02'1312.8
2018-Feb-08 21:30N 25°59' W 080°04'7 7.5
2018-Feb-08 20:30N 26°05' W 080°07'0 0.0
2018-Feb-08 05:00N 26°05' W 080°07'0 0.0
2018-Feb-08 04:00N 26°05' W 080°07'0 0.0
2018-Feb-08 03:00N 26°05' W 080°07'0 0.0
2018-Feb-08 02:30N 26°05' W 080°07'0 0.0
2018-Feb-08 01:30N 26°05' W 080°07'0 0.0
2018-Feb-08 01:00N 26°05' W 080°07'0 0.0
2018-Feb-08 00:30N 26°05' W 080°07'0 0.0
2018-Feb-08 00:00N 26°05' W 080°07'0 0.0
2018-Feb-07 23:30N 26°05' W 080°07'0 0.0
2018-Feb-07 23:00N 26°05' W 080°07'0 0.0
2018-Feb-07 22:30N 26°05' W 080°07'0 0.0
2018-Feb-07 22:00N 26°05' W 080°07'0 0.0
2018-Feb-07 21:30N 26°05' W 080°07'18 1.5
2018-Feb-07 09:30N 25°48' W 080°02'5 9.9
2018-Feb-07 09:00N 25°43' W 080°01'611.2
2018-Feb-07 08:30N 25°37' W 080°00'611.5
2018-Feb-07 07:58N 25°31' W 080°00'  

Dump ship's entire track history